createdAt,value
2018-09-21T00:00:10.131Z,1000.44
2018-09-21T00:01:10.099Z,1000.53
2018-09-21T00:02:10.064Z,1000.47
2018-09-21T00:03:10.035Z,1000.43
2018-09-21T00:04:10.006Z,1000.37
2018-09-21T00:05:09.976Z,1000.29
2018-09-21T00:06:09.935Z,1000.41
2018-09-21T00:07:09.905Z,1000.39
2018-09-21T00:08:09.875Z,1000.37
2018-09-21T00:09:09.841Z,1000.30
2018-09-21T00:10:09.817Z,1000.34
2018-09-21T00:11:09.775Z,1000.25
2018-09-21T00:12:09.885Z,1000.30
2018-09-21T00:13:09.722Z,1000.27
2018-09-21T00:14:09.685Z,1000.24
2018-09-21T00:15:09.681Z,1000.26
2018-09-21T00:16:09.619Z,1000.32
2018-09-21T00:17:09.587Z,1000.22
2018-09-21T00:18:09.560Z,1000.22
2018-09-21T00:19:09.526Z,1000.28
2018-09-21T00:20:09.500Z,1000.21
2018-09-21T00:21:09.464Z,1000.17
2018-09-21T00:22:09.433Z,1000.27
2018-09-21T00:23:09.402Z,1000.19
2018-09-21T00:24:09.387Z,1000.22
2018-09-21T00:25:09.341Z,1000.19
2018-09-21T00:26:09.308Z,1000.19
2018-09-21T00:27:09.288Z,1000.24
2018-09-21T00:28:09.242Z,1000.19
2018-09-21T00:29:09.219Z,1000.21
2018-09-21T00:30:09.179Z,1000.23
2018-09-21T00:31:09.145Z,1000.21
2018-09-21T00:32:09.137Z,1000.27
2018-09-21T00:33:09.088Z,1000.25
2018-09-21T00:34:09.065Z,1000.18
2018-09-21T00:35:09.026Z,1000.17
2018-09-21T00:36:08.996Z,1000.23
2018-09-21T00:37:08.960Z,1000.14
2018-09-21T00:38:08.930Z,1000.13
2018-09-21T00:39:08.906Z,1000.09
2018-09-21T00:40:08.870Z,1000.09
2018-09-21T00:41:08.836Z,1000.16
2018-09-21T00:42:08.805Z,1000.09
2018-09-21T00:43:08.773Z,1000.00
2018-09-21T00:44:08.764Z,1000.04
2018-09-21T00:45:08.744Z,1000.00
2018-09-21T00:46:08.677Z,999.96
2018-09-21T00:47:08.666Z,1000.02
2018-09-21T00:48:08.627Z,999.96
2018-09-21T00:49:08.587Z,999.92
2018-09-21T00:50:08.584Z,999.90
2018-09-21T00:51:08.523Z,999.91
2018-09-21T00:52:08.500Z,999.85
2018-09-21T00:53:08.459Z,999.86
2018-09-21T00:54:08.440Z,999.86
2018-09-21T00:55:08.415Z,999.72
2018-09-21T00:56:08.385Z,999.75
2018-09-21T00:57:08.332Z,999.78
2018-09-21T00:58:08.304Z,999.70
2018-09-21T00:59:08.271Z,999.67
2018-09-21T01:00:08.242Z,999.69
2018-09-21T01:01:08.207Z,999.60
2018-09-21T01:02:08.180Z,999.63
2018-09-21T01:03:08.143Z,999.58
2018-09-21T01:04:08.148Z,999.65
2018-09-21T01:05:08.085Z,999.66
2018-09-21T01:06:08.081Z,999.62
2018-09-21T01:07:08.018Z,999.59
2018-09-21T01:08:07.995Z,999.63
2018-09-21T01:09:07.955Z,999.59
2018-09-21T01:10:07.923Z,999.53
2018-09-21T01:11:07.894Z,999.57
2018-09-21T01:12:07.886Z,999.56
2018-09-21T01:13:07.832Z,999.50
2018-09-21T01:14:07.801Z,999.55
2018-09-21T01:15:07.779Z,999.48
2018-09-21T01:16:07.760Z,999.47
2018-09-21T01:17:07.710Z,999.44
2018-09-21T01:18:07.686Z,999.49
2018-09-21T01:19:07.644Z,999.52
2018-09-21T01:20:07.612Z,999.43
2018-09-21T01:21:07.580Z,999.44
2018-09-21T01:22:07.558Z,999.38
2018-09-21T01:23:07.524Z,999.40
2018-09-21T01:24:07.486Z,999.41
2018-09-21T01:25:07.489Z,999.25
2018-09-21T01:26:07.419Z,999.34
2018-09-21T01:27:07.401Z,999.28
2018-09-21T01:28:07.357Z,999.23
2018-09-21T01:29:07.358Z,999.29
2018-09-21T01:30:07.295Z,999.30
2018-09-21T01:31:07.275Z,999.27
2018-09-21T01:32:07.237Z,999.28
2018-09-21T01:33:07.211Z,999.25
2018-09-21T01:34:07.170Z,999.29
2018-09-21T01:35:07.141Z,999.22
2018-09-21T01:36:07.112Z,999.32
2018-09-21T01:37:07.092Z,999.29
2018-09-21T01:38:07.072Z,999.26
2018-09-21T01:39:07.024Z,999.22
2018-09-21T01:40:06.983Z,999.23
2018-09-21T01:41:06.984Z,999.21
2018-09-21T01:42:06.919Z,999.21
2018-09-21T01:43:06.885Z,999.19
2018-09-21T01:44:06.877Z,999.18
2018-09-21T01:45:06.832Z,999.11
2018-09-21T01:46:06.796Z,999.06
2018-09-21T01:47:06.759Z,999.07
2018-09-21T01:48:07.227Z,999.09
2018-09-21T01:49:06.695Z,999.02
2018-09-21T01:50:06.670Z,999.10
2018-09-21T01:51:06.637Z,999.04
2018-09-21T01:52:06.606Z,999.03
2018-09-21T01:53:07.199Z,998.97
2018-09-21T01:54:06.540Z,999.00
2018-09-21T01:55:06.515Z,998.96
2018-09-21T01:56:06.482Z,998.93
2018-09-21T01:57:06.449Z,998.91
2018-09-21T01:58:06.420Z,998.89
2018-09-21T01:59:06.393Z,998.88
2018-09-21T02:00:06.496Z,998.90
2018-09-21T02:01:06.328Z,998.86
2018-09-21T02:02:06.501Z,998.85
2018-09-21T02:03:06.260Z,998.84
2018-09-21T02:04:06.545Z,998.80
2018-09-21T02:05:06.520Z,998.79
2018-09-21T02:06:06.183Z,998.82
2018-09-21T02:07:06.134Z,998.72
2018-09-21T02:08:06.106Z,998.72
2018-09-21T02:09:06.095Z,998.73
2018-09-21T02:10:06.038Z,998.76
2018-09-21T02:11:06.014Z,998.75
2018-09-21T02:12:05.980Z,998.68
2018-09-21T02:13:05.946Z,998.68
2018-09-21T02:14:05.931Z,998.64
2018-09-21T02:15:05.884Z,998.66
2018-09-21T02:16:05.865Z,998.59
2018-09-21T02:17:05.834Z,998.52
2018-09-21T02:18:05.802Z,998.55
2018-09-21T02:19:05.778Z,998.45
2018-09-21T02:20:05.757Z,998.49
2018-09-21T02:21:05.728Z,998.50
2018-09-21T02:22:05.662Z,998.47
2018-09-21T02:23:05.632Z,998.48
2018-09-21T02:24:05.601Z,998.48
2018-09-21T02:25:06.206Z,998.45
2018-09-21T02:26:05.541Z,998.41
2018-09-21T02:27:05.515Z,998.35
2018-09-21T02:28:05.492Z,998.31
2018-09-21T02:29:05.453Z,998.30
2018-09-21T02:30:05.415Z,998.25
2018-09-21T02:31:05.386Z,998.33
2018-09-21T02:32:05.357Z,998.37
2018-09-21T02:33:05.356Z,998.33
2018-09-21T02:34:05.318Z,998.31
2018-09-21T02:35:05.260Z,998.34
2018-09-21T02:36:05.229Z,998.31
2018-09-21T02:37:05.192Z,998.26
2018-09-21T02:38:05.162Z,998.26
2018-09-21T02:39:05.154Z,998.29
2018-09-21T02:40:05.106Z,998.24
2018-09-21T02:41:05.079Z,998.25
2018-09-21T02:42:05.043Z,998.19
2018-09-21T02:43:05.019Z,998.10
2018-09-21T02:44:04.976Z,998.10
2018-09-21T02:45:04.942Z,998.05
2018-09-21T02:46:04.918Z,998.10
2018-09-21T02:47:04.877Z,998.05
2018-09-21T02:48:04.851Z,998.02
2018-09-21T02:49:04.816Z,998.03
2018-09-21T02:50:04.816Z,998.00
2018-09-21T02:51:04.775Z,998.01
2018-09-21T02:52:04.753Z,998.02
2018-09-21T02:53:04.688Z,998.02
2018-09-21T02:54:04.668Z,997.86
2018-09-21T02:55:04.637Z,997.78
2018-09-21T02:56:04.611Z,997.84
2018-09-21T02:57:04.573Z,997.79
2018-09-21T02:58:04.549Z,997.76
2018-09-21T02:59:04.508Z,997.74
2018-09-21T03:00:04.478Z,997.74
2018-09-21T03:01:04.498Z,997.73
2018-09-21T03:02:04.409Z,997.72
2018-09-21T03:03:04.399Z,997.62
2018-09-21T03:04:04.347Z,997.63
2018-09-21T03:05:04.354Z,997.61
2018-09-21T03:06:04.291Z,997.65
2018-09-21T03:07:04.257Z,997.55
2018-09-21T03:08:04.236Z,997.53
2018-09-21T03:09:04.199Z,997.49
2018-09-21T03:10:04.178Z,997.45
2018-09-21T03:11:04.132Z,997.36
2018-09-21T03:12:04.102Z,997.35
2018-09-21T03:13:04.381Z,997.32
2018-09-21T03:14:04.043Z,997.31
2018-09-21T03:15:04.012Z,997.29
2018-09-21T03:16:03.993Z,997.15
2018-09-21T03:17:03.946Z,997.26
2018-09-21T03:18:03.921Z,997.24
2018-09-21T03:19:03.920Z,997.06
2018-09-21T03:20:03.866Z,997.25
2018-09-21T03:21:03.827Z,997.18
2018-09-21T03:22:03.796Z,997.17
2018-09-21T03:23:03.821Z,997.16
2018-09-21T03:24:03.739Z,997.14
2018-09-21T03:25:03.707Z,997.08
2018-09-21T03:26:03.726Z,996.96
2018-09-21T03:27:03.653Z,997.03
2018-09-21T03:28:03.640Z,996.98
2018-09-21T03:29:03.584Z,996.81
2018-09-21T03:30:03.556Z,996.91
2018-09-21T03:31:03.524Z,996.91
2018-09-21T03:32:03.508Z,996.94
2018-09-21T03:33:03.464Z,996.92
2018-09-21T03:34:03.438Z,996.93
2018-09-21T03:35:03.467Z,996.86
2018-09-21T03:36:03.393Z,996.87
2018-09-21T03:37:03.346Z,996.70
2018-09-21T03:38:03.316Z,996.90
2018-09-21T03:39:04.093Z,996.78
2018-09-21T03:40:03.249Z,996.84
2018-09-21T03:41:03.239Z,996.74
2018-09-21T03:42:04.094Z,996.77
2018-09-21T03:43:03.177Z,996.81
2018-09-21T03:44:03.129Z,996.78
2018-09-21T03:45:03.096Z,996.73
2018-09-21T03:46:03.087Z,996.80
2018-09-21T03:47:03.030Z,996.79
2018-09-21T03:48:03.001Z,996.72
2018-09-21T03:49:02.974Z,996.61
2018-09-21T03:50:02.937Z,996.72
2018-09-21T03:51:02.911Z,996.56
2018-09-21T03:52:02.886Z,996.74
2018-09-21T03:53:02.847Z,996.71
2018-09-21T03:54:02.817Z,996.71
2018-09-21T03:55:02.787Z,996.70
2018-09-21T03:56:02.756Z,996.70
2018-09-21T03:57:02.745Z,996.41
2018-09-21T03:58:02.716Z,996.46
2018-09-21T03:59:02.675Z,996.67
2018-09-21T04:00:02.661Z,996.53
2018-09-21T04:01:02.638Z,996.73
2018-09-21T04:02:02.584Z,996.60
2018-09-21T04:03:02.548Z,996.56
2018-09-21T04:04:02.518Z,996.51
2018-09-21T04:05:02.487Z,996.53
2018-09-21T04:06:02.450Z,996.53
2018-09-21T04:07:02.423Z,996.59
2018-09-21T04:08:02.391Z,996.58
2018-09-21T04:09:02.363Z,996.55
2018-09-21T04:10:02.340Z,996.57
2018-09-21T04:11:02.341Z,996.31
2018-09-21T04:12:02.273Z,996.47
2018-09-21T04:13:02.243Z,996.29
2018-09-21T04:14:02.209Z,996.49
2018-09-21T04:15:02.190Z,996.48
2018-09-21T04:16:02.149Z,996.38
2018-09-21T04:17:02.120Z,996.55
2018-09-21T04:18:02.108Z,996.45
2018-09-21T04:19:02.065Z,996.40
2018-09-21T04:20:02.027Z,996.44
2018-09-21T04:21:02.000Z,996.41
2018-09-21T04:22:02.082Z,996.46
2018-09-21T04:23:01.966Z,996.36
2018-09-21T04:24:01.954Z,996.35
2018-09-21T04:25:01.873Z,996.40
2018-09-21T04:26:01.857Z,996.39
2018-09-21T04:27:01.833Z,996.40
2018-09-21T04:28:01.790Z,996.47
2018-09-21T04:29:01.762Z,996.43
2018-09-21T04:30:01.723Z,996.35
2018-09-21T04:31:01.707Z,996.44
2018-09-21T04:32:01.670Z,996.40
2018-09-21T04:33:01.671Z,996.35
2018-09-21T04:34:01.632Z,996.37
2018-09-21T04:35:01.607Z,996.36
2018-09-21T04:36:01.558Z,996.36
2018-09-21T04:37:01.513Z,996.18
2018-09-21T04:38:01.497Z,996.36
2018-09-21T04:39:01.466Z,996.30
2018-09-21T04:40:01.417Z,996.29
2018-09-21T04:41:01.396Z,996.29
2018-09-21T04:42:01.364Z,996.26
2018-09-21T04:43:01.330Z,996.28
2018-09-21T04:44:01.342Z,996.22
2018-09-21T04:45:01.282Z,996.27
2018-09-21T04:46:01.250Z,996.40
2018-09-21T04:47:01.208Z,996.19
2018-09-21T04:48:01.175Z,996.25
2018-09-21T04:49:01.147Z,995.99
2018-09-21T04:50:01.688Z,996.05
2018-09-21T04:51:01.087Z,996.06
2018-09-21T04:52:01.058Z,996.05
2018-09-21T04:53:01.026Z,996.10
2018-09-21T04:54:00.996Z,996.12
2018-09-21T04:55:00.967Z,996.14
2018-09-21T04:56:00.932Z,996.16
2018-09-21T04:57:00.943Z,996.03
2018-09-21T04:58:00.876Z,996.20
2018-09-21T04:59:00.856Z,996.16
2018-09-21T05:00:00.808Z,996.06
2018-09-21T05:01:00.793Z,996.26
2018-09-21T05:02:00.757Z,996.15
2018-09-21T05:03:00.719Z,996.27
2018-09-21T05:04:00.697Z,996.12
2018-09-21T05:05:00.664Z,996.09
2018-09-21T05:06:00.625Z,996.24
2018-09-21T05:07:00.613Z,995.95
2018-09-21T05:08:00.570Z,996.07
2018-09-21T05:09:00.569Z,996.03
2018-09-21T05:10:00.505Z,996.06
2018-09-21T05:11:00.478Z,996.13
2018-09-21T05:12:00.446Z,996.13
2018-09-21T05:13:00.439Z,996.10
2018-09-21T05:14:00.386Z,996.03
2018-09-21T05:15:00.353Z,995.89
2018-09-21T05:16:00.324Z,995.99
2018-09-21T05:17:00.296Z,995.79
2018-09-21T05:18:00.260Z,995.82
2018-09-21T05:19:00.234Z,995.79
2018-09-21T05:20:00.203Z,995.80
2018-09-21T05:21:00.175Z,995.70
2018-09-21T05:22:00.137Z,995.73
2018-09-21T05:23:00.108Z,995.92
2018-09-21T05:24:00.085Z,995.98
2018-09-21T05:25:00.076Z,995.94
2018-09-21T05:26:00.018Z,996.07
2018-09-21T05:26:59.991Z,995.89
2018-09-21T05:27:59.955Z,995.98
2018-09-21T05:28:59.925Z,996.00
2018-09-21T05:29:59.930Z,995.99
2018-09-21T05:30:59.864Z,995.94
2018-09-21T05:31:59.835Z,995.99
2018-09-21T05:32:59.804Z,996.13
2018-09-21T05:33:59.780Z,996.04
2018-09-21T05:34:59.786Z,995.94
2018-09-21T05:35:59.723Z,995.96
2018-09-21T05:36:59.680Z,995.86
2018-09-21T05:37:59.653Z,995.87
2018-09-21T05:38:59.623Z,996.08
2018-09-21T05:39:59.589Z,995.85
2018-09-21T05:40:59.557Z,995.96
2018-09-21T05:41:59.532Z,996.05
2018-09-21T05:42:59.499Z,995.87
2018-09-21T05:43:59.467Z,996.01
2018-09-21T05:44:59.449Z,995.88
2018-09-21T05:45:59.405Z,996.03
2018-09-21T05:46:59.389Z,995.84
2018-09-21T05:47:59.349Z,995.70
2018-09-21T05:48:59.319Z,996.01
2018-09-21T05:49:59.281Z,996.00
2018-09-21T05:50:59.252Z,996.08
2018-09-21T05:51:59.224Z,995.99
2018-09-21T05:52:59.193Z,996.10
2018-09-21T05:53:59.161Z,996.10
2018-09-21T05:54:59.133Z,996.12
2018-09-21T05:55:59.123Z,996.00
2018-09-21T05:56:59.069Z,995.99
2018-09-21T05:57:59.057Z,996.04
2018-09-21T05:58:59.010Z,996.01
2018-09-21T05:59:58.982Z,996.02
2018-09-21T06:00:58.955Z,996.05
2018-09-21T06:01:59.215Z,996.11
2018-09-21T06:02:59.077Z,995.92
2018-09-21T06:03:58.858Z,996.09
2018-09-21T06:04:58.822Z,996.07
2018-09-21T06:05:58.791Z,996.11
2018-09-21T06:06:58.769Z,995.87
2018-09-21T06:07:58.749Z,995.87
2018-09-21T06:08:58.709Z,995.92
2018-09-21T06:09:58.679Z,996.01
2018-09-21T06:10:58.651Z,995.91
2018-09-21T06:11:58.611Z,995.79
2018-09-21T06:12:58.580Z,996.01
2018-09-21T06:13:58.591Z,996.11
2018-09-21T06:14:58.526Z,996.09
2018-09-21T06:15:58.494Z,995.98
2018-09-21T06:16:58.458Z,995.85
2018-09-21T06:17:58.440Z,996.06
2018-09-21T06:18:58.407Z,996.20
2018-09-21T06:20:11.756Z,996.06
2018-09-21T06:20:58.345Z,996.19
2018-09-21T06:21:58.317Z,996.02
2018-09-21T06:22:58.339Z,996.16
2018-09-21T06:23:58.251Z,996.18
2018-09-21T06:24:58.217Z,996.14
2018-09-21T06:25:58.191Z,995.98
2018-09-21T06:26:58.151Z,996.05
2018-09-21T06:27:58.124Z,996.06
2018-09-21T06:28:58.093Z,995.94
2018-09-21T06:29:58.066Z,995.87
2018-09-21T06:30:58.033Z,995.79
2018-09-21T06:31:58.023Z,995.76
2018-09-21T06:32:57.981Z,995.74
2018-09-21T06:33:57.943Z,995.75
2018-09-21T06:34:57.915Z,995.67
2018-09-21T06:35:57.881Z,995.72
2018-09-21T06:36:57.857Z,995.67
2018-09-21T06:37:57.819Z,995.61
2018-09-21T06:38:57.794Z,995.59
2018-09-21T06:39:57.761Z,995.68
2018-09-21T06:40:57.737Z,995.72
2018-09-21T06:41:57.702Z,995.78
2018-09-21T06:42:57.665Z,995.95
2018-09-21T06:43:57.645Z,995.95
2018-09-21T06:44:57.607Z,995.97
2018-09-21T06:45:57.577Z,995.90
2018-09-21T06:46:57.561Z,996.01
2018-09-21T06:47:57.521Z,996.01
2018-09-21T06:48:57.484Z,996.09
2018-09-21T06:49:57.490Z,996.12
2018-09-21T06:50:57.427Z,996.26
2018-09-21T06:51:57.392Z,996.23
2018-09-21T06:52:57.364Z,996.34
2018-09-21T06:53:57.335Z,996.34
2018-09-21T06:54:57.309Z,996.17
2018-09-21T06:55:57.274Z,996.31
2018-09-21T06:56:57.242Z,996.38
2018-09-21T06:57:57.211Z,996.32
2018-09-21T06:58:57.180Z,996.16
2018-09-21T06:59:57.149Z,996.12
2018-09-21T07:00:57.119Z,996.18
2018-09-21T07:01:57.658Z,996.18
2018-09-21T07:02:57.072Z,996.13
2018-09-21T07:03:57.050Z,996.23
2018-09-21T07:04:56.995Z,996.29
2018-09-21T07:05:56.983Z,996.28
2018-09-21T07:06:56.956Z,996.23
2018-09-21T07:07:56.915Z,996.31
2018-09-21T07:08:56.874Z,996.26
2018-09-21T07:09:56.880Z,996.25
2018-09-21T07:10:56.815Z,996.23
2018-09-21T07:11:56.796Z,996.23
2018-09-21T07:12:56.757Z,996.26
2018-09-21T07:13:56.721Z,996.17
2018-09-21T07:14:56.692Z,995.97
2018-09-21T07:15:56.693Z,995.98
2018-09-21T07:16:56.629Z,996.08
2018-09-21T07:17:56.606Z,996.13
2018-09-21T07:18:56.576Z,996.13
2018-09-21T07:19:56.551Z,996.17
2018-09-21T07:20:56.510Z,996.08
2018-09-21T07:21:56.481Z,996.23
2018-09-21T07:22:56.454Z,996.16
2018-09-21T07:23:56.420Z,996.07
2018-09-21T07:24:56.389Z,996.10
2018-09-21T07:25:56.400Z,996.13
2018-09-21T07:26:56.337Z,996.10
2018-09-21T07:27:56.299Z,996.01
2018-09-21T07:28:56.270Z,995.87
2018-09-21T07:29:56.248Z,995.96
2018-09-21T07:30:56.221Z,995.88
2018-09-21T07:31:56.183Z,995.78
2018-09-21T07:32:56.146Z,995.82
2018-09-21T07:33:56.168Z,995.86
2018-09-21T07:34:56.114Z,995.88
2018-09-21T07:35:56.053Z,995.84
2018-09-21T07:36:56.031Z,995.84
2018-09-21T07:37:55.999Z,995.66
2018-09-21T07:38:55.969Z,995.64
2018-09-21T07:39:56.665Z,995.61
2018-09-21T07:40:55.908Z,995.78
2018-09-21T07:41:55.877Z,995.68
2018-09-21T07:42:55.929Z,995.73
2018-09-21T07:43:55.813Z,995.51
2018-09-21T07:44:55.934Z,995.87
2018-09-21T07:45:55.753Z,995.81
2018-09-21T07:46:55.733Z,995.87
2018-09-21T07:47:55.698Z,995.78
2018-09-21T07:48:55.709Z,995.72
2018-09-21T07:49:55.653Z,995.70
2018-09-21T07:50:55.608Z,995.68
2018-09-21T07:51:55.572Z,995.61
2018-09-21T07:52:55.545Z,995.65
2018-09-21T07:53:55.526Z,995.68
2018-09-21T07:54:55.498Z,995.81
2018-09-21T07:55:55.450Z,995.68
2018-09-21T07:56:55.442Z,995.70
2018-09-21T07:57:55.392Z,995.82
2018-09-21T07:58:55.393Z,995.76
2018-09-21T07:59:55.338Z,995.72
2018-09-21T08:00:55.302Z,995.95
2018-09-21T08:01:55.275Z,996.08
2018-09-21T08:02:55.249Z,996.05
2018-09-21T08:03:55.214Z,996.09
2018-09-21T08:04:55.251Z,996.10
2018-09-21T08:05:55.400Z,996.07
2018-09-21T08:06:55.120Z,996.01
2018-09-21T08:07:55.088Z,995.91
2018-09-21T08:08:55.058Z,995.83
2018-09-21T08:09:55.035Z,995.91
2018-09-21T08:10:55.003Z,995.92
2018-09-21T08:11:54.972Z,995.90
2018-09-21T08:12:55.760Z,995.93
2018-09-21T08:13:54.915Z,995.97
2018-09-21T08:14:54.890Z,996.11
2018-09-21T08:15:54.845Z,996.09
2018-09-21T08:16:54.816Z,996.13
2018-09-21T08:17:54.791Z,996.17
2018-09-21T08:18:54.760Z,996.14
2018-09-21T08:19:54.728Z,996.17
2018-09-21T08:20:54.701Z,996.16
2018-09-21T08:21:54.666Z,996.18
2018-09-21T08:22:54.653Z,996.26
2018-09-21T08:23:54.619Z,996.27
2018-09-21T08:24:54.582Z,996.17
2018-09-21T08:25:54.548Z,996.25
2018-09-21T08:26:54.521Z,996.25
2018-09-21T08:27:54.487Z,996.35
2018-09-21T08:28:54.458Z,996.31
2018-09-21T08:29:54.441Z,996.07
2018-09-21T08:30:54.398Z,996.14
2018-09-21T08:31:54.369Z,996.36
2018-09-21T08:32:54.361Z,996.41
2018-09-21T08:33:54.311Z,996.56
2018-09-21T08:34:54.281Z,996.41
2018-09-21T08:35:54.264Z,996.55
2018-09-21T08:36:54.220Z,996.51
2018-09-21T08:37:54.191Z,996.62
2018-09-21T08:38:54.165Z,996.68
2018-09-21T08:39:54.126Z,996.52
2018-09-21T08:40:54.120Z,996.56
2018-09-21T08:41:54.071Z,996.64
2018-09-21T08:42:54.077Z,996.94
2018-09-21T08:43:54.009Z,997.05
2018-09-21T08:44:53.975Z,997.30
2018-09-21T08:45:53.963Z,997.45
2018-09-21T08:46:53.916Z,997.23
2018-09-21T08:47:53.879Z,997.69
2018-09-21T08:48:53.850Z,997.20
2018-09-21T08:49:54.050Z,997.82
2018-09-21T08:50:53.795Z,997.82
2018-09-21T08:51:53.753Z,997.74
2018-09-21T08:52:53.725Z,997.89
2018-09-21T08:53:53.695Z,998.08
2018-09-21T08:54:53.706Z,998.19
2018-09-21T08:55:54.022Z,998.22
2018-09-21T08:56:53.600Z,998.26
2018-09-21T08:57:53.565Z,998.56
2018-09-21T08:58:53.531Z,998.49
2018-09-21T08:59:53.507Z,998.78
2018-09-21T09:00:53.472Z,998.78
2018-09-21T09:01:53.457Z,998.85
2018-09-21T09:02:53.414Z,998.80
2018-09-21T09:03:53.378Z,998.98
2018-09-21T09:04:53.342Z,998.90
2018-09-21T09:05:53.306Z,998.99
2018-09-21T09:06:53.274Z,999.13
2018-09-21T09:07:53.285Z,999.12
2018-09-21T09:08:53.209Z,999.06
2018-09-21T09:09:53.188Z,998.79
2018-09-21T09:10:53.143Z,999.28
2018-09-21T09:11:53.115Z,999.20
2018-09-21T09:12:53.742Z,999.28
2018-09-21T09:13:53.050Z,998.81
2018-09-21T09:14:53.015Z,999.23
2018-09-21T09:15:52.989Z,999.21
2018-09-21T09:16:52.946Z,999.25
2018-09-21T09:17:52.908Z,999.32
2018-09-21T09:18:52.877Z,999.33
2018-09-21T09:19:52.849Z,999.23
2018-09-21T09:20:52.811Z,999.19
2018-09-21T09:21:52.775Z,999.28
2018-09-21T09:22:52.745Z,999.26
2018-09-21T09:23:52.715Z,999.42
2018-09-21T09:24:52.718Z,999.36
2018-09-21T09:25:52.643Z,999.39
2018-09-21T09:26:52.616Z,999.38
2018-09-21T09:27:52.579Z,999.28
2018-09-21T09:28:52.546Z,999.30
2018-09-21T09:29:52.835Z,999.31
2018-09-21T09:30:52.496Z,999.33
2018-09-21T09:31:52.445Z,999.28
2018-09-21T09:32:52.413Z,999.19
2018-09-21T09:33:52.414Z,999.10
2018-09-21T09:34:52.347Z,999.16
2018-09-21T09:35:52.318Z,999.25
2018-09-21T09:36:52.311Z,999.25
2018-09-21T09:37:52.255Z,999.35
2018-09-21T09:38:52.214Z,999.28
2018-09-21T09:39:52.178Z,999.26
2018-09-21T09:40:52.147Z,999.19
2018-09-21T09:41:52.121Z,999.32
2018-09-21T09:42:52.106Z,999.30
2018-09-21T09:43:52.045Z,999.28
2018-09-21T09:44:52.012Z,999.23
2018-09-21T09:45:52.016Z,999.10
2018-09-21T09:46:51.948Z,999.36
2018-09-21T09:47:51.918Z,999.09
2018-09-21T09:48:51.933Z,999.27
2018-09-21T09:49:51.849Z,999.26
2018-09-21T09:50:51.817Z,999.33
2018-09-21T09:51:51.794Z,999.28
2018-09-21T09:52:51.755Z,999.34
2018-09-21T09:53:51.717Z,999.29
2018-09-21T09:54:51.747Z,999.44
2018-09-21T09:55:51.653Z,999.32
2018-09-21T09:56:51.644Z,999.05
2018-09-21T09:57:51.588Z,999.24
2018-09-21T09:58:51.562Z,999.31
2018-09-21T09:59:51.531Z,999.06
2018-09-21T10:00:51.484Z,999.16
2018-09-21T10:01:51.473Z,999.14
2018-09-21T10:02:51.417Z,999.22
2018-09-21T10:03:51.433Z,999.26
2018-09-21T10:04:51.350Z,999.43
2018-09-21T10:05:51.326Z,999.37
2018-09-21T10:06:51.288Z,999.49
2018-09-21T10:07:51.258Z,999.48
2018-09-21T10:08:51.220Z,999.39
2018-09-21T10:09:51.185Z,999.53
2018-09-21T10:10:51.154Z,999.43
2018-09-21T10:11:51.116Z,999.48
2018-09-21T10:12:51.088Z,999.49
2018-09-21T10:13:51.056Z,999.46
2018-09-21T10:14:51.020Z,999.50
2018-09-21T10:15:50.993Z,999.45
2018-09-21T10:16:50.953Z,999.46
2018-09-21T10:17:50.920Z,999.51
2018-09-21T10:18:50.886Z,999.48
2018-09-21T10:19:50.859Z,999.61
2018-09-21T10:20:50.822Z,999.59
2018-09-21T10:21:50.786Z,999.57
2018-09-21T10:22:50.753Z,999.55
2018-09-21T10:23:50.757Z,999.51
2018-09-21T10:24:50.704Z,999.60
2018-09-21T10:25:50.653Z,999.62
2018-09-21T10:26:50.694Z,999.61
2018-09-21T10:27:50.790Z,999.64
2018-09-21T10:28:50.709Z,999.60
2018-09-21T10:29:50.520Z,999.61
2018-09-21T10:30:50.489Z,999.59
2018-09-21T10:31:50.530Z,999.56
2018-09-21T10:32:50.421Z,999.53
2018-09-21T10:33:50.490Z,999.63
2018-09-21T10:34:50.364Z,999.61
2018-09-21T10:35:50.346Z,999.68
2018-09-21T10:36:50.300Z,999.67
2018-09-21T10:37:50.265Z,999.61
2018-09-21T10:38:50.249Z,999.59
2018-09-21T10:39:50.245Z,999.55
2018-09-21T10:40:50.170Z,999.58
2018-09-21T10:41:50.129Z,999.43
2018-09-21T10:42:50.166Z,999.38
2018-09-21T10:43:50.071Z,999.41
2018-09-21T10:44:50.043Z,999.36
2018-09-21T10:45:50.003Z,999.46
2018-09-21T10:46:49.980Z,999.45
2018-09-21T10:47:49.936Z,999.41
2018-09-21T10:48:49.909Z,999.45
2018-09-21T10:49:49.928Z,999.48
2018-09-21T10:50:49.864Z,999.40
2018-09-21T10:51:49.805Z,999.48
2018-09-21T10:52:49.920Z,999.50
2018-09-21T10:53:49.747Z,999.40
2018-09-21T10:54:49.712Z,999.59
2018-09-21T10:55:49.684Z,999.44
2018-09-21T10:56:49.646Z,999.68
2018-09-21T10:57:49.615Z,999.47
2018-09-21T10:58:49.581Z,999.59
2018-09-21T10:59:49.550Z,999.56
2018-09-21T11:00:49.519Z,999.41
2018-09-21T11:01:49.501Z,999.22
2018-09-21T11:02:49.491Z,999.60
2018-09-21T11:03:49.424Z,999.64
2018-09-21T11:04:49.390Z,999.74
2018-09-21T11:05:49.358Z,999.74
2018-09-21T11:06:49.331Z,999.59
2018-09-21T11:07:49.303Z,999.66
2018-09-21T11:08:49.268Z,999.62
2018-09-21T11:09:49.229Z,999.64
2018-09-21T11:10:49.195Z,999.63
2018-09-21T11:11:49.166Z,999.48
2018-09-21T11:12:49.134Z,999.59
2018-09-21T11:13:49.105Z,999.60
2018-09-21T11:14:49.070Z,999.74
2018-09-21T11:15:49.210Z,999.77
2018-09-21T11:16:49.005Z,999.63
2018-09-21T11:17:48.982Z,999.57
2018-09-21T11:18:49.393Z,999.60
2018-09-21T11:19:48.914Z,999.62
2018-09-21T11:20:48.907Z,999.70
2018-09-21T11:21:48.870Z,999.78
2018-09-21T11:22:48.832Z,999.58
2018-09-21T11:23:48.799Z,999.63
2018-09-21T11:24:48.768Z,999.85
2018-09-21T11:25:48.748Z,999.59
2018-09-21T11:26:48.717Z,999.80
2018-09-21T11:27:48.686Z,999.85
2018-09-21T11:28:48.665Z,999.77
2018-09-21T11:29:48.625Z,999.77
2018-09-21T11:30:48.598Z,999.77
2018-09-21T11:33:48.523Z,999.83
2018-09-21T11:40:48.388Z,999.81
2018-09-21T11:41:48.312Z,999.82
2018-09-21T11:43:48.259Z,999.86
2018-09-21T11:44:48.230Z,999.79
2018-09-21T11:45:48.217Z,999.74
2018-09-21T11:46:48.261Z,999.73
2018-09-21T11:47:48.207Z,999.69
2018-09-21T11:48:48.124Z,999.68
2018-09-21T11:49:48.090Z,999.71
2018-09-21T11:50:48.062Z,999.63
2018-09-21T11:51:48.031Z,999.71
2018-09-21T11:52:48.002Z,999.76
2018-09-21T11:53:47.992Z,999.75
2018-09-21T11:54:47.947Z,999.75
2018-09-21T11:55:47.920Z,999.74
2018-09-21T11:56:47.889Z,999.86
2018-09-21T11:57:47.884Z,1000.03
2018-09-21T11:58:47.827Z,1000.06
2018-09-21T11:59:47.800Z,1000.04
2018-09-21T12:00:47.775Z,1000.11
2018-09-21T12:01:47.773Z,1000.20
2018-09-21T12:02:47.722Z,1000.15
2018-09-21T12:03:47.674Z,1000.21
2018-09-21T12:04:47.650Z,1000.15
2018-09-21T12:05:47.615Z,1000.24
2018-09-21T12:06:47.597Z,1000.14
2018-09-21T12:07:47.550Z,1000.20
2018-09-21T12:08:47.525Z,1000.13
2018-09-21T12:09:47.488Z,1000.17
2018-09-21T12:10:47.460Z,1000.17
2018-09-21T12:11:47.468Z,1000.42
2018-09-21T12:12:47.410Z,1000.37
2018-09-21T12:13:47.361Z,1000.48
2018-09-21T12:14:47.346Z,1000.48
2018-09-21T12:15:47.450Z,1000.28
2018-09-21T12:16:47.299Z,1000.36
2018-09-21T12:17:47.699Z,1000.42
2018-09-21T12:18:47.284Z,1000.48
2018-09-21T12:19:47.193Z,1000.49
2018-09-21T12:20:47.145Z,1000.37
2018-09-21T12:21:47.118Z,1000.43
2018-09-21T12:22:47.133Z,1000.53
2018-09-21T12:23:47.053Z,1000.59
2018-09-21T12:24:47.028Z,1000.69
2018-09-21T12:25:47.001Z,1000.61
2018-09-21T12:26:46.958Z,1000.67
2018-09-21T12:27:46.933Z,1000.70
2018-09-21T12:28:46.907Z,1000.73
2018-09-21T12:29:46.870Z,1000.64
2018-09-21T12:30:46.842Z,1000.67
2018-09-21T12:31:46.816Z,1000.71
2018-09-21T12:32:46.810Z,1000.75
2018-09-21T12:33:46.742Z,1000.82